Richmond Amo, Australia
Current Conditions -  °F | °C
As of 3:30 PM on Sunday 21 Dec 2014 (Local Time) from YSRI Reporting Station
Clear Clear  
Wind Chill: 86°   Ceiling: Unl
Heat Index: 87°   Visibility: 6mi
Dew Point: 63°   Wind: 13mph
Humidity: 45%   Direction: 70°ENE
Pressure: 29.94"   Gusts: NA
Location:  33.6°S, 150.78°E
Report Text: YSRI 210430Z AUTO 07011KT 9999 // NCD 30/17 Q1014
Loading
Personal Weather Stations






























Interactive Weather Map New forecast layout! Learn more

10-Day Weather Forecast

Advertisements
Track Severe Weather on mobile